createdAt,value
2023-01-15T00:02:40.517Z,0
2023-01-15T00:07:40.473Z,0
2023-01-15T00:12:42.661Z,0
2023-01-15T00:17:40.487Z,0
2023-01-15T00:22:40.433Z,0
2023-01-15T00:27:40.873Z,0
2023-01-15T00:32:40.987Z,0
2023-01-15T00:37:40.421Z,0
2023-01-15T00:42:41.206Z,0
2023-01-15T00:47:40.423Z,0
2023-01-15T00:52:40.476Z,0
2023-01-15T00:57:45.580Z,0
2023-01-15T01:02:40.541Z,0
2023-01-15T01:07:40.496Z,0
2023-01-15T01:12:41.977Z,0
2023-01-15T01:17:45.737Z,0
2023-01-15T01:22:40.737Z,0
2023-01-15T01:27:43.583Z,0
2023-01-15T01:32:40.462Z,0
2023-01-15T01:37:40.629Z,0
2023-01-15T01:42:43.023Z,0
2023-01-15T01:47:40.450Z,0
2023-01-15T01:52:40.391Z,0
2023-01-15T01:57:44.982Z,0
2023-01-15T02:02:40.744Z,0
2023-01-15T02:07:40.420Z,0
2023-01-15T02:12:41.451Z,0
2023-01-15T02:17:40.545Z,0
2023-01-15T02:22:40.402Z,0
2023-01-15T02:27:41.631Z,0
2023-01-15T02:32:40.420Z,0
2023-01-15T02:37:40.484Z,0
2023-01-15T02:42:42.556Z,0
2023-01-15T02:47:40.386Z,0
2023-01-15T02:52:40.327Z,0
2023-01-15T02:57:44.806Z,0
2023-01-15T03:07:40.432Z,0
2023-01-15T03:12:41.852Z,0
2023-01-15T03:17:40.431Z,0
2023-01-15T03:22:40.372Z,0
2023-01-15T03:27:42.365Z,0
2023-01-15T03:32:40.474Z,0
2023-01-15T03:37:40.439Z,0
2023-01-15T03:42:41.006Z,0
2023-01-15T03:47:40.454Z,0
2023-01-15T03:52:40.478Z,0
2023-01-15T03:57:45.404Z,0
2023-01-15T04:02:40.483Z,0
2023-01-15T04:07:40.393Z,0
2023-01-15T04:12:42.447Z,0
2023-01-15T04:17:40.440Z,0
2023-01-15T04:22:40.552Z,0
2023-01-15T04:27:41.166Z,0
2023-01-15T04:32:40.443Z,0
2023-01-15T04:37:40.480Z,0
2023-01-15T04:42:41.108Z,0
2023-01-15T04:47:40.497Z,0
2023-01-15T04:52:40.376Z,0
2023-01-15T04:57:46.632Z,0
2023-01-15T05:02:40.484Z,0
2023-01-15T05:07:40.482Z,0
2023-01-15T05:12:42.495Z,0
2023-01-15T05:17:40.504Z,0
2023-01-15T05:22:40.385Z,0
2023-01-15T05:27:41.158Z,0
2023-01-15T05:32:40.640Z,0
2023-01-15T05:37:40.486Z,0
2023-01-15T05:42:42.900Z,0
2023-01-15T05:47:40.522Z,0
2023-01-15T05:52:40.492Z,0
2023-01-15T05:57:48.235Z,0
2023-01-15T06:02:40.731Z,0
2023-01-15T06:07:40.500Z,0
2023-01-15T06:12:42.316Z,0
2023-01-15T06:17:40.412Z,0
2023-01-15T06:22:41.365Z,0
2023-01-15T06:27:41.780Z,0
2023-01-15T06:32:40.492Z,0
2023-01-15T06:37:40.495Z,0
2023-01-15T06:42:41.380Z,0
2023-01-15T06:47:40.397Z,0
2023-01-15T06:52:40.516Z,0
2023-01-15T06:57:45.002Z,0
2023-01-15T07:02:40.486Z,0
2023-01-15T07:07:40.525Z,0
2023-01-15T07:12:42.467Z,0
2023-01-15T07:17:40.542Z,0
2023-01-15T07:22:40.587Z,0
2023-01-15T07:27:41.053Z,0
2023-01-15T07:32:40.553Z,0
2023-01-15T07:37:40.541Z,0
2023-01-15T07:42:41.530Z,0
2023-01-15T07:47:40.559Z,265
2023-01-15T07:52:40.544Z,0
2023-01-15T07:57:43.650Z,266
2023-01-15T08:02:40.419Z,266
2023-01-15T08:07:40.688Z,265
2023-01-15T08:12:42.982Z,0
2023-01-15T08:17:40.434Z,0
2023-01-15T08:22:40.429Z,0
2023-01-15T08:27:42.866Z,0
2023-01-15T08:32:40.615Z,265
2023-01-15T08:37:40.599Z,268
2023-01-15T08:42:41.280Z,270
2023-01-15T08:47:40.451Z,272
2023-01-15T08:52:40.607Z,271
2023-01-15T08:57:45.793Z,269
2023-01-15T09:02:40.448Z,268
2023-01-15T09:07:40.564Z,271
2023-01-15T09:12:42.767Z,273
2023-01-15T09:17:40.494Z,274
2023-01-15T09:22:40.482Z,273
2023-01-15T09:27:41.358Z,272
2023-01-15T09:37:43.577Z,270
2023-01-15T09:42:43.851Z,275
2023-01-15T09:47:43.773Z,272
2023-01-15T09:52:43.447Z,277
2023-01-15T09:57:44.624Z,278
2023-01-15T10:02:43.732Z,280
2023-01-15T10:07:43.456Z,280
2023-01-15T10:12:43.508Z,279
2023-01-15T10:17:43.844Z,284
2023-01-15T10:22:43.438Z,274
2023-01-15T10:27:44.487Z,276
2023-01-15T10:33:00.952Z,282
2023-01-15T10:37:43.598Z,274
2023-01-15T10:42:43.465Z,268
2023-01-15T10:47:43.576Z,265
2023-01-15T10:52:46.527Z,265
2023-01-15T10:57:49.833Z,268
2023-01-15T11:02:43.610Z,277
2023-01-15T11:08:05.741Z,271
2023-01-15T11:12:52.687Z,280
2023-01-15T11:17:43.471Z,276
2023-01-15T11:22:46.560Z,275
2023-01-15T11:27:43.796Z,280
2023-01-15T11:32:43.521Z,280
2023-01-15T11:37:43.541Z,278
2023-01-15T11:42:43.525Z,281
2023-01-15T11:47:46.489Z,276
2023-01-15T11:52:43.468Z,274
2023-01-15T11:57:47.341Z,284
2023-01-15T12:02:43.537Z,277
2023-01-15T12:07:43.482Z,290
2023-01-15T12:12:43.543Z,287
2023-01-15T12:17:43.477Z,287
2023-01-15T12:22:43.485Z,279
2023-01-15T12:27:43.562Z,281
2023-01-15T12:32:43.495Z,280
2023-01-15T12:37:43.490Z,276
2023-01-15T12:42:43.503Z,273
2023-01-15T12:47:43.701Z,277
2023-01-15T12:52:44.862Z,273
2023-01-15T12:57:44.926Z,277
2023-01-15T13:02:43.659Z,274
2023-01-15T13:07:43.531Z,274
2023-01-15T13:12:43.791Z,281
2023-01-15T13:17:49.143Z,281
2023-01-15T13:22:43.498Z,280
2023-01-15T13:27:45.085Z,274
2023-01-15T13:32:43.721Z,275
2023-01-15T13:37:43.572Z,275
2023-01-15T13:42:48.523Z,272
2023-01-15T13:47:43.521Z,268
2023-01-15T13:52:43.644Z,277
2023-01-15T13:57:45.959Z,274
2023-01-15T14:02:43.565Z,270
2023-01-15T14:07:43.521Z,274
2023-01-15T14:12:43.560Z,273
2023-01-15T14:17:43.567Z,271
2023-01-15T14:22:43.576Z,268
2023-01-15T14:27:43.572Z,267
2023-01-15T14:32:48.623Z,267
2023-01-15T14:37:43.518Z,266
2023-01-15T14:42:43.642Z,0
2023-01-15T14:47:43.522Z,267
2023-01-15T14:52:43.624Z,265
2023-01-15T14:57:46.224Z,266
2023-01-15T15:02:43.673Z,265
2023-01-15T15:07:44.471Z,0
2023-01-15T15:12:44.525Z,268
2023-01-15T15:17:44.588Z,267
2023-01-15T15:22:44.548Z,265
2023-01-15T15:27:44.518Z,0
2023-01-15T15:32:44.566Z,0
2023-01-15T15:37:44.561Z,0
2023-01-15T15:42:45.579Z,0
2023-01-15T15:47:44.518Z,0
2023-01-15T15:52:44.587Z,0
2023-01-15T15:57:44.600Z,0
2023-01-15T16:02:44.682Z,0
2023-01-15T16:07:44.551Z,0
2023-01-15T16:12:44.522Z,0
2023-01-15T16:17:44.559Z,0
2023-01-15T16:22:44.589Z,0
2023-01-15T16:27:44.539Z,0
2023-01-15T16:32:44.548Z,0
2023-01-15T16:37:44.624Z,0
2023-01-15T16:42:44.542Z,0
2023-01-15T16:47:44.541Z,0
2023-01-15T16:52:44.546Z,0
2023-01-15T16:57:44.612Z,0
2023-01-15T17:02:44.552Z,0
2023-01-15T17:07:44.599Z,0
2023-01-15T17:12:44.551Z,0
2023-01-15T17:17:44.621Z,0
2023-01-15T17:22:44.590Z,0
2023-01-15T17:27:46.042Z,0
2023-01-15T17:32:44.555Z,0
2023-01-15T17:37:44.582Z,0
2023-01-15T17:42:45.585Z,0
2023-01-15T17:47:44.536Z,0
2023-01-15T17:52:44.616Z,0
2023-01-15T17:57:45.065Z,0
2023-01-15T18:02:44.576Z,0
2023-01-15T18:07:44.858Z,0
2023-01-15T18:12:44.581Z,0
2023-01-15T18:17:44.594Z,0
2023-01-15T18:22:44.584Z,0
2023-01-15T18:27:44.550Z,0
2023-01-15T18:32:44.557Z,0
2023-01-15T18:37:44.740Z,0
2023-01-15T18:42:44.575Z,0
2023-01-15T18:47:44.628Z,0
2023-01-15T18:52:44.633Z,0
2023-01-15T18:57:45.190Z,0
2023-01-15T19:02:44.870Z,0
2023-01-15T19:07:44.599Z,0
2023-01-15T19:12:44.655Z,0
2023-01-15T19:17:44.578Z,0
2023-01-15T19:22:44.647Z,0
2023-01-15T19:27:44.635Z,0
2023-01-15T19:32:44.586Z,0
2023-01-15T19:37:44.626Z,0
2023-01-15T19:42:44.567Z,0
2023-01-15T19:47:44.576Z,0
2023-01-15T19:52:44.576Z,0
2023-01-15T19:57:45.478Z,0
2023-01-15T20:02:44.684Z,0
2023-01-15T20:07:44.619Z,0
2023-01-15T20:12:44.598Z,0
2023-01-15T20:17:44.588Z,0
2023-01-15T20:22:44.565Z,0
2023-01-15T20:27:44.620Z,0
2023-01-15T20:32:44.575Z,0
2023-01-15T20:37:45.073Z,0
2023-01-15T20:42:45.861Z,0
2023-01-15T20:47:44.679Z,0
2023-01-15T20:52:44.617Z,0
2023-01-15T20:57:45.112Z,0
2023-01-15T21:02:44.624Z,0
2023-01-15T21:07:44.657Z,0
2023-01-15T21:12:44.611Z,0
2023-01-15T21:17:44.610Z,0
2023-01-15T21:22:44.591Z,0
2023-01-15T21:27:44.643Z,0
2023-01-15T21:32:44.628Z,0
2023-01-15T21:37:44.931Z,0
2023-01-15T21:42:44.606Z,0
2023-01-15T21:47:44.682Z,0
2023-01-15T21:52:44.639Z,0
2023-01-15T21:57:46.887Z,0
2023-01-15T22:02:44.698Z,0
2023-01-15T22:07:44.619Z,0
2023-01-15T22:12:45.771Z,0
2023-01-15T22:17:44.610Z,0
2023-01-15T22:22:44.617Z,0
2023-01-15T22:27:44.605Z,0
2023-01-15T22:32:44.618Z,0
2023-01-15T22:37:44.608Z,0
2023-01-15T22:42:44.626Z,0
2023-01-15T22:47:44.618Z,0
2023-01-15T22:52:44.767Z,0
2023-01-15T22:57:47.507Z,0
2023-01-15T23:02:44.612Z,0
2023-01-15T23:07:44.628Z,0
2023-01-15T23:12:47.028Z,0
2023-01-15T23:17:44.641Z,0
2023-01-15T23:22:44.676Z,0
2023-01-15T23:27:44.662Z,0
2023-01-15T23:32:44.638Z,0
2023-01-15T23:37:44.629Z,0
2023-01-15T23:42:45.664Z,0
2023-01-15T23:47:45.144Z,0
2023-01-15T23:52:44.679Z,0
2023-01-15T23:57:46.479Z,0
